createdAt,value
2022-11-29T00:01:38.459Z,3.37
2022-11-29T00:04:06.769Z,3.78
2022-11-29T00:06:35.520Z,3.68
2022-11-29T00:09:07.660Z,3.64
2022-11-29T00:11:55.423Z,3.74
2022-11-29T00:14:24.534Z,3.33
2022-11-29T00:16:54.386Z,3.65
2022-11-29T00:19:22.607Z,3.78
2022-11-29T00:21:50.545Z,3.87
2022-11-29T00:24:18.835Z,3.72
2022-11-29T00:26:46.537Z,3.57
2022-11-29T00:29:14.843Z,3.73
2022-11-29T00:31:43.376Z,3.83
2022-11-29T00:34:12.723Z,3.64
2022-11-29T00:36:41.092Z,3.51
2022-11-29T00:39:11.812Z,3.54
2022-11-29T00:41:39.887Z,3.58
2022-11-29T00:44:07.619Z,3.67
2022-11-29T00:46:35.370Z,3.64
2022-11-29T00:49:03.187Z,3.80
2022-11-29T00:51:30.855Z,3.73
2022-11-29T00:53:58.537Z,3.61
2022-11-29T00:56:26.254Z,3.67
2022-11-29T00:58:54.031Z,3.77
2022-11-29T01:01:21.752Z,3.62
2022-11-29T01:03:49.784Z,3.63
2022-11-29T01:06:19.239Z,3.64
2022-11-29T01:08:48.112Z,3.73
2022-11-29T01:11:24.245Z,3.56
2022-11-29T01:13:55.022Z,3.60
2022-11-29T01:16:23.647Z,3.45
2022-11-29T01:18:51.437Z,3.29
2022-11-29T01:21:22.280Z,3.35
2022-11-29T01:23:51.439Z,3.33
2022-11-29T01:26:24.905Z,3.42
2022-11-29T01:28:54.721Z,3.45
2022-11-29T01:31:29.185Z,3.43
2022-11-29T01:33:59.145Z,3.57
2022-11-29T01:36:27.783Z,3.57
2022-11-29T01:38:55.610Z,3.64
2022-11-29T01:41:26.102Z,3.62
2022-11-29T01:44:29.263Z,3.59
2022-11-29T01:46:58.337Z,3.48
2022-11-29T01:49:39.455Z,3.56
2022-11-29T01:52:12.226Z,3.58
2022-11-29T01:54:44.839Z,3.52
2022-11-29T01:57:14.039Z,3.61
2022-11-29T01:59:49.493Z,3.50
2022-11-29T02:02:21.843Z,3.53
2022-11-29T02:04:50.555Z,3.42
2022-11-29T02:07:18.376Z,3.56
2022-11-29T02:09:46.125Z,3.59
2022-11-29T02:12:16.700Z,3.65
2022-11-29T02:14:50.361Z,3.54
2022-11-29T02:17:54.930Z,3.56
2022-11-29T02:20:56.281Z,3.62
2022-11-29T02:24:08.726Z,3.36
2022-11-29T02:27:05.412Z,3.40
2022-11-29T02:30:08.224Z,3.54
2022-11-29T02:33:09.754Z,3.46
2022-11-29T02:36:06.827Z,3.37
2022-11-29T02:39:08.607Z,3.41
2022-11-29T02:41:53.377Z,3.61
2022-11-29T02:44:38.666Z,3.64
2022-11-29T02:47:18.862Z,3.55
2022-11-29T02:50:13.981Z,3.54
2022-11-29T02:52:51.489Z,3.29
2022-11-29T02:55:42.198Z,3.39
2022-11-29T02:58:27.523Z,3.43
2022-11-29T03:01:22.227Z,3.56
2022-11-29T03:04:29.634Z,3.67
2022-11-29T03:07:05.106Z,3.58
2022-11-29T03:10:04.268Z,3.26
2022-11-29T03:12:41.461Z,3.37
2022-11-29T03:15:17.789Z,3.39
2022-11-29T03:18:03.824Z,3.45
2022-11-29T03:20:31.455Z,3.45
2022-11-29T03:23:15.902Z,3.41
2022-11-29T03:25:56.352Z,3.58
2022-11-29T03:28:29.042Z,3.53
2022-11-29T03:31:19.835Z,3.63
2022-11-29T03:34:05.971Z,3.60
2022-11-29T03:36:49.130Z,3.50
2022-11-29T03:39:22.185Z,3.55
2022-11-29T03:41:56.508Z,3.40
2022-11-29T03:44:28.997Z,3.60
2022-11-29T03:47:13.700Z,3.57
2022-11-29T03:49:57.486Z,3.47
2022-11-29T03:52:28.577Z,3.53
2022-11-29T03:55:33.103Z,3.56
2022-11-29T03:58:12.287Z,3.68
2022-11-29T04:01:29.490Z,3.52
2022-11-29T04:04:19.277Z,3.61
2022-11-29T04:07:01.844Z,3.65
2022-11-29T04:09:50.341Z,3.41
2022-11-29T04:12:39.553Z,3.59
2022-11-29T04:15:41.035Z,3.57
2022-11-29T04:18:41.160Z,3.64
2022-11-29T04:21:27.679Z,3.71
2022-11-29T04:24:10.559Z,3.52
2022-11-29T04:27:07.661Z,3.47
2022-11-29T04:29:53.766Z,3.48
2022-11-29T04:32:40.297Z,3.43
2022-11-29T04:35:39.977Z,3.48
2022-11-29T04:38:26.477Z,3.45
2022-11-29T04:41:12.246Z,3.36
2022-11-29T04:44:07.128Z,3.39
2022-11-29T04:46:49.763Z,3.43
2022-11-29T04:49:29.507Z,3.51
2022-11-29T04:52:19.801Z,3.52
2022-11-29T04:55:06.092Z,3.52
2022-11-29T04:57:54.389Z,3.52
2022-11-29T05:00:24.705Z,3.50
2022-11-29T05:02:57.349Z,3.57
2022-11-29T05:05:50.111Z,3.62
2022-11-29T05:08:36.418Z,3.48
2022-11-29T05:11:13.151Z,3.53
2022-11-29T05:13:58.950Z,3.39
2022-11-29T05:16:41.461Z,3.34
2022-11-29T05:19:48.988Z,3.40
2022-11-29T05:22:49.265Z,3.53
2022-11-29T05:25:41.253Z,3.58
2022-11-29T05:28:32.429Z,3.56
2022-11-29T05:31:21.932Z,3.42
2022-11-29T05:34:04.730Z,3.36
2022-11-29T05:36:57.138Z,3.31
2022-11-29T05:39:50.599Z,3.37
2022-11-29T05:42:29.687Z,3.31
2022-11-29T05:45:10.949Z,3.41
2022-11-29T05:47:52.117Z,3.39
2022-11-29T05:50:27.809Z,3.56
2022-11-29T05:53:37.168Z,3.58
2022-11-29T05:56:17.935Z,3.46
2022-11-29T05:59:23.311Z,3.47
2022-11-29T06:02:09.460Z,3.44
2022-11-29T06:04:58.329Z,3.51
2022-11-29T06:07:51.712Z,3.41
2022-11-29T06:10:22.206Z,3.48
2022-11-29T06:13:08.254Z,3.33
2022-11-29T06:15:56.649Z,3.38
2022-11-29T06:18:47.573Z,3.45
2022-11-29T06:21:40.203Z,3.51
2022-11-29T06:24:25.907Z,3.35
2022-11-29T06:27:12.556Z,3.25
2022-11-29T06:29:59.059Z,3.26
2022-11-29T06:32:51.680Z,3.39
2022-11-29T06:35:45.793Z,3.42
2022-11-29T06:38:23.593Z,3.36
2022-11-29T06:40:56.054Z,3.31
2022-11-29T06:43:28.202Z,3.30
2022-11-29T06:46:07.253Z,3.17
2022-11-29T06:48:43.322Z,3.34
2022-11-29T06:51:30.424Z,3.46
2022-11-29T06:54:25.241Z,3.47
2022-11-29T06:57:21.598Z,3.59
2022-11-29T07:00:17.271Z,3.59
2022-11-29T07:03:15.953Z,3.54
2022-11-29T07:05:44.042Z,3.60
2022-11-29T07:08:21.267Z,3.62
2022-11-29T07:10:53.109Z,3.52
2022-11-29T07:13:21.283Z,3.54
2022-11-29T07:16:08.615Z,3.58
2022-11-29T07:18:54.868Z,3.55
2022-11-29T07:21:26.991Z,3.57
2022-11-29T07:23:57.370Z,3.55
2022-11-29T07:26:30.179Z,3.63
2022-11-29T07:29:06.916Z,3.67
2022-11-29T07:31:57.051Z,3.65
2022-11-29T07:34:32.798Z,3.76
2022-11-29T07:37:31.889Z,3.64
2022-11-29T07:40:24.883Z,3.67
2022-11-29T07:43:08.192Z,3.75
2022-11-29T07:45:36.851Z,3.78
2022-11-29T07:48:05.365Z,3.81
2022-11-29T07:50:33.139Z,3.76
2022-11-29T07:53:01.227Z,3.70
2022-11-29T07:55:29.711Z,3.66
2022-11-29T07:57:57.395Z,3.68
2022-11-29T08:00:25.283Z,3.62
2022-11-29T08:02:53.024Z,3.50
2022-11-29T08:05:20.748Z,3.58
2022-11-29T08:07:48.663Z,3.83
2022-11-29T08:10:18.163Z,3.82
2022-11-29T08:12:48.823Z,3.88
2022-11-29T08:15:17.587Z,3.93
2022-11-29T08:17:45.272Z,3.93
2022-11-29T08:20:15.189Z,3.96
2022-11-29T08:22:43.098Z,4.00
2022-11-29T08:25:12.048Z,4.11
2022-11-29T08:27:39.821Z,4.19
2022-11-29T08:30:08.827Z,4.26
2022-11-29T08:32:36.871Z,4.25
2022-11-29T08:35:04.739Z,4.40
2022-11-29T08:37:32.418Z,4.44
2022-11-29T08:40:00.147Z,4.41
2022-11-29T08:42:27.887Z,4.39
2022-11-29T08:44:55.569Z,4.33
2022-11-29T08:47:38.130Z,4.46
2022-11-29T08:50:14.486Z,4.55
2022-11-29T08:53:05.630Z,4.47
2022-11-29T08:55:39.967Z,4.56
2022-11-29T08:58:09.668Z,4.61
2022-11-29T09:00:37.721Z,4.58
2022-11-29T09:03:24.761Z,4.57
2022-11-29T09:05:53.265Z,4.45
2022-11-29T09:08:21.644Z,4.42
2022-11-29T09:10:49.713Z,4.42
2022-11-29T09:13:18.213Z,4.54
2022-11-29T09:15:46.115Z,4.63
2022-11-29T09:18:13.838Z,4.65
2022-11-29T09:20:44.968Z,4.75
2022-11-29T09:23:13.664Z,4.64
2022-11-29T09:25:41.334Z,4.69
2022-11-29T09:28:09.023Z,4.71
2022-11-29T09:30:38.123Z,4.76
2022-11-29T09:33:05.966Z,4.70
2022-11-29T09:35:34.724Z,4.75
2022-11-29T09:38:02.387Z,4.79
2022-11-29T09:40:40.064Z,4.87
2022-11-29T09:43:23.132Z,4.93
2022-11-29T09:45:59.955Z,4.94
2022-11-29T09:48:33.669Z,4.98
2022-11-29T09:51:28.024Z,5.02
2022-11-29T09:54:16.011Z,4.98
2022-11-29T09:56:48.236Z,4.98
2022-11-29T09:59:27.825Z,5.19
2022-11-29T10:02:18.317Z,5.24
2022-11-29T10:04:57.896Z,4.83
2022-11-29T10:07:35.988Z,5.13
2022-11-29T10:10:10.345Z,5.31
2022-11-29T10:12:47.411Z,5.39
2022-11-29T10:15:27.350Z,5.49
2022-11-29T10:18:03.127Z,5.55
2022-11-29T10:20:40.505Z,5.47
2022-11-29T10:23:39.990Z,5.62
2022-11-29T10:26:08.356Z,5.58
2022-11-29T10:28:38.091Z,5.70
2022-11-29T10:31:28.765Z,5.73
2022-11-29T10:33:59.213Z,5.66
2022-11-29T10:36:36.037Z,5.80
2022-11-29T10:39:27.202Z,5.82
2022-11-29T10:41:58.364Z,5.91
2022-11-29T10:44:26.934Z,5.83
2022-11-29T10:46:55.493Z,5.76
2022-11-29T10:49:28.907Z,5.76
2022-11-29T10:51:56.637Z,5.68
2022-11-29T10:54:35.850Z,5.75
2022-11-29T10:57:09.496Z,5.69
2022-11-29T10:59:37.124Z,5.69
2022-11-29T11:02:06.656Z,5.78
2022-11-29T11:04:45.860Z,5.79
2022-11-29T11:07:27.694Z,5.63
2022-11-29T11:09:57.761Z,5.69
2022-11-29T11:12:30.764Z,5.56
2022-11-29T11:15:27.993Z,5.68
2022-11-29T11:18:01.313Z,5.66
2022-11-29T11:20:32.134Z,5.66
2022-11-29T11:23:08.930Z,5.54
2022-11-29T11:25:39.594Z,5.66
2022-11-29T11:28:26.451Z,5.75
2022-11-29T11:31:04.487Z,5.81
2022-11-29T11:33:38.312Z,5.88
2022-11-29T11:36:09.521Z,5.62
2022-11-29T11:38:40.554Z,5.45
2022-11-29T11:41:22.720Z,5.40
2022-11-29T11:43:54.246Z,5.41
2022-11-29T11:46:22.008Z,5.45
2022-11-29T11:48:51.873Z,5.51
2022-11-29T11:51:27.041Z,5.42
2022-11-29T11:53:58.479Z,5.40
2022-11-29T11:56:35.830Z,5.47
2022-11-29T11:59:03.834Z,5.54
2022-11-29T12:01:38.244Z,5.56
2022-11-29T12:04:23.414Z,5.54
2022-11-29T12:07:10.736Z,5.55
2022-11-29T12:09:53.851Z,5.56
2022-11-29T12:12:29.039Z,5.56
2022-11-29T12:15:01.081Z,5.51
2022-11-29T12:17:42.871Z,5.40
2022-11-29T12:20:31.551Z,5.36
2022-11-29T12:23:24.610Z,5.29
2022-11-29T12:26:28.592Z,5.27
2022-11-29T12:29:03.967Z,5.30
2022-11-29T12:31:55.862Z,5.15
2022-11-29T12:34:41.317Z,5.23
2022-11-29T12:37:33.482Z,5.22
2022-11-29T12:40:32.397Z,5.17
2022-11-29T12:43:00.074Z,5.19
2022-11-29T12:45:58.602Z,5.16
2022-11-29T12:48:35.516Z,5.24
2022-11-29T12:51:15.081Z,5.23
2022-11-29T12:53:45.804Z,5.27
2022-11-29T12:56:36.719Z,5.29
2022-11-29T12:59:33.962Z,5.31
2022-11-29T13:02:26.241Z,5.35
2022-11-29T13:05:20.047Z,5.36
2022-11-29T13:08:12.713Z,5.40
2022-11-29T13:10:46.325Z,5.28
2022-11-29T13:13:28.080Z,5.31
2022-11-29T13:16:31.668Z,5.30
2022-11-29T13:19:24.003Z,5.23
2022-11-29T13:21:56.756Z,5.17
2022-11-29T13:24:37.102Z,5.09
2022-11-29T13:27:09.134Z,5.01
2022-11-29T13:29:36.839Z,4.96
2022-11-29T13:32:14.402Z,5.04
2022-11-29T13:34:48.801Z,4.97
2022-11-29T13:37:25.093Z,4.75
2022-11-29T13:40:03.327Z,4.89
2022-11-29T13:43:10.139Z,4.97
2022-11-29T13:45:56.554Z,4.86
2022-11-29T13:48:30.016Z,4.92
2022-11-29T13:50:59.013Z,4.93
2022-11-29T13:53:48.287Z,4.90
2022-11-29T13:56:29.692Z,4.90
2022-11-29T13:58:59.008Z,4.91
2022-11-29T14:01:26.860Z,4.78
2022-11-29T14:04:06.851Z,4.87
2022-11-29T14:06:40.040Z,4.78
2022-11-29T14:09:25.069Z,4.85
2022-11-29T14:12:07.865Z,4.82
2022-11-29T14:14:49.618Z,4.90
2022-11-29T14:17:49.350Z,4.86
2022-11-29T14:20:41.152Z,4.83
2022-11-29T14:23:08.839Z,4.81
2022-11-29T14:25:54.426Z,4.82
2022-11-29T14:28:22.136Z,4.84
2022-11-29T14:30:57.110Z,4.80
2022-11-29T14:33:55.997Z,4.77
2022-11-29T14:36:42.684Z,4.76
2022-11-29T14:39:19.280Z,4.79
2022-11-29T14:42:17.029Z,4.65
2022-11-29T14:44:49.132Z,4.52
2022-11-29T14:47:25.682Z,4.68
2022-11-29T14:49:56.636Z,4.71
2022-11-29T14:52:57.797Z,4.71
2022-11-29T14:55:25.414Z,4.66
2022-11-29T14:58:02.158Z,4.56
2022-11-29T15:00:36.025Z,4.60
2022-11-29T15:03:21.663Z,4.67
2022-11-29T15:05:56.401Z,4.60
2022-11-29T15:08:51.941Z,4.53
2022-11-29T15:11:32.714Z,4.53
2022-11-29T15:14:16.528Z,4.50
2022-11-29T15:16:59.277Z,4.40
2022-11-29T15:19:45.507Z,4.43
2022-11-29T15:22:22.801Z,4.42
2022-11-29T15:24:57.841Z,4.44
2022-11-29T15:27:25.780Z,4.30
2022-11-29T15:29:53.488Z,4.46
2022-11-29T15:32:25.608Z,4.41
2022-11-29T15:34:56.238Z,4.33
2022-11-29T15:37:32.829Z,4.37
2022-11-29T15:40:05.322Z,4.36
2022-11-29T15:42:47.201Z,4.31
2022-11-29T15:45:27.647Z,4.28
2022-11-29T15:47:56.667Z,4.26
2022-11-29T15:50:32.029Z,4.24
2022-11-29T15:53:04.706Z,4.22
2022-11-29T15:55:33.680Z,4.28
2022-11-29T15:58:08.451Z,4.29
2022-11-29T16:00:37.261Z,4.29
2022-11-29T16:03:08.245Z,4.30
2022-11-29T16:05:40.264Z,4.26
2022-11-29T16:08:18.593Z,4.25
2022-11-29T16:10:50.402Z,4.25
2022-11-29T16:13:40.298Z,4.25
2022-11-29T16:16:14.032Z,4.09
2022-11-29T16:18:44.150Z,4.23
2022-11-29T16:21:32.755Z,4.23
2022-11-29T16:24:12.862Z,4.30
2022-11-29T16:26:45.266Z,4.21
2022-11-29T16:29:35.669Z,4.08
2022-11-29T16:32:42.063Z,4.15
2022-11-29T16:35:18.360Z,3.92
2022-11-29T16:37:47.593Z,3.86
2022-11-29T16:40:28.899Z,4.01
2022-11-29T16:43:05.674Z,4.01
2022-11-29T16:45:42.099Z,4.12
2022-11-29T16:48:31.213Z,4.09
2022-11-29T16:51:27.899Z,4.01
2022-11-29T16:53:55.887Z,4.02
2022-11-29T16:56:30.144Z,4.05
2022-11-29T16:59:21.110Z,4.05
2022-11-29T17:01:50.521Z,3.94
2022-11-29T17:04:24.361Z,4.00
2022-11-29T17:06:53.094Z,4.04
2022-11-29T17:09:25.305Z,3.96
2022-11-29T17:11:53.305Z,3.99
2022-11-29T17:14:21.118Z,4.06
2022-11-29T17:16:50.443Z,4.16
2022-11-29T17:19:23.845Z,4.07
2022-11-29T17:21:52.756Z,4.04
2022-11-29T17:24:21.832Z,4.02
2022-11-29T17:26:50.345Z,4.11
2022-11-29T17:29:19.507Z,4.00
2022-11-29T17:31:50.409Z,4.02
2022-11-29T17:34:18.842Z,4.14
2022-11-29T17:36:46.752Z,4.11
2022-11-29T17:39:15.837Z,4.17
2022-11-29T17:41:43.583Z,4.12
2022-11-29T17:44:11.299Z,4.02
2022-11-29T17:46:39.489Z,4.09
2022-11-29T17:49:09.566Z,4.11
2022-11-29T17:51:55.481Z,4.06
2022-11-29T17:54:23.858Z,4.07
2022-11-29T17:56:52.135Z,4.05
2022-11-29T17:59:20.530Z,4.02
2022-11-29T18:01:48.406Z,4.04
2022-11-29T18:04:16.416Z,4.00
2022-11-29T18:06:45.805Z,4.02
2022-11-29T18:09:13.907Z,3.94
2022-11-29T18:11:48.212Z,4.04
2022-11-29T18:14:23.735Z,3.96
2022-11-29T18:16:52.333Z,3.85
2022-11-29T18:19:22.802Z,3.93
2022-11-29T18:21:51.458Z,4.09
2022-11-29T18:24:19.711Z,3.83
2022-11-29T18:26:47.789Z,3.99
2022-11-29T18:29:15.888Z,4.07
2022-11-29T18:31:45.960Z,3.94
2022-11-29T18:34:15.337Z,3.90
2022-11-29T18:36:48.639Z,3.89
2022-11-29T18:39:18.674Z,3.95
2022-11-29T18:41:50.818Z,4.02
2022-11-29T18:44:21.575Z,3.98
2022-11-29T18:46:49.394Z,4.10
2022-11-29T18:49:18.648Z,4.05
2022-11-29T18:51:47.537Z,4.06
2022-11-29T18:54:17.081Z,4.11
2022-11-29T18:56:46.231Z,4.19
2022-11-29T18:59:17.892Z,4.11
2022-11-29T19:01:47.923Z,4.19
2022-11-29T19:04:18.630Z,4.22
2022-11-29T19:06:46.692Z,4.08
2022-11-29T19:09:17.805Z,4.06
2022-11-29T19:11:45.563Z,4.04
2022-11-29T19:14:13.991Z,4.11
2022-11-29T19:16:44.771Z,4.18
2022-11-29T19:19:13.437Z,4.13
2022-11-29T19:21:41.828Z,3.98
2022-11-29T19:24:17.771Z,3.98
2022-11-29T19:26:48.044Z,4.02
2022-11-29T19:29:15.995Z,4.00
2022-11-29T19:31:44.249Z,4.06
2022-11-29T19:34:12.485Z,4.04
2022-11-29T19:36:43.445Z,3.99
2022-11-29T19:39:15.648Z,4.07
2022-11-29T19:41:47.613Z,4.03
2022-11-29T19:44:15.340Z,4.04
2022-11-29T19:46:47.076Z,3.96
2022-11-29T19:49:15.067Z,3.93
2022-11-29T19:51:42.951Z,3.87
2022-11-29T19:54:11.986Z,4.04
2022-11-29T19:56:40.216Z,3.97
2022-11-29T19:59:08.937Z,3.97
2022-11-29T20:01:41.416Z,3.99
2022-11-29T20:04:10.599Z,3.93
2022-11-29T20:06:38.626Z,3.98
2022-11-29T20:09:07.137Z,4.02
2022-11-29T20:11:35.035Z,3.93
2022-11-29T20:14:04.983Z,4.01
2022-11-29T20:16:34.239Z,3.96
2022-11-29T20:19:02.185Z,3.93
2022-11-29T20:21:32.488Z,4.06
2022-11-29T20:24:06.555Z,3.97
2022-11-29T20:26:38.042Z,4.01
2022-11-29T20:29:07.176Z,3.99
2022-11-29T20:31:37.380Z,4.06
2022-11-29T20:34:06.570Z,3.99
2022-11-29T20:36:43.426Z,3.88
2022-11-29T20:39:39.496Z,3.99
2022-11-29T20:42:32.182Z,3.97
2022-11-29T20:45:06.717Z,4.07
2022-11-29T20:47:55.832Z,4.05
2022-11-29T20:50:28.804Z,3.93
2022-11-29T20:53:20.670Z,4.04
2022-11-29T20:55:49.971Z,3.97
2022-11-29T20:58:19.494Z,3.94
2022-11-29T21:00:47.380Z,3.93
2022-11-29T21:03:19.449Z,3.88
2022-11-29T21:05:48.836Z,3.90
2022-11-29T21:08:18.603Z,3.91
2022-11-29T21:10:46.610Z,3.90
2022-11-29T21:13:15.554Z,3.94
2022-11-29T21:15:43.902Z,3.89
2022-11-29T21:18:38.336Z,3.83
2022-11-29T21:21:30.418Z,3.86
2022-11-29T21:24:06.729Z,3.93
2022-11-29T21:26:42.224Z,3.85
2022-11-29T21:29:22.464Z,3.58
2022-11-29T21:31:53.086Z,3.89
2022-11-29T21:34:21.765Z,3.86
2022-11-29T21:37:00.915Z,3.86
2022-11-29T21:39:34.055Z,3.86
2022-11-29T21:42:01.931Z,3.84
2022-11-29T21:44:29.655Z,3.83
2022-11-29T21:46:57.370Z,3.83
2022-11-29T21:49:25.140Z,3.80
2022-11-29T21:51:52.899Z,3.79
2022-11-29T21:54:20.598Z,3.78
2022-11-29T21:56:48.256Z,3.85
2022-11-29T21:59:15.964Z,3.72
2022-11-29T22:01:43.849Z,3.71
2022-11-29T22:04:14.098Z,3.71
2022-11-29T22:06:41.780Z,3.63
2022-11-29T22:09:09.525Z,3.53
2022-11-29T22:11:37.598Z,3.58
2022-11-29T22:14:17.972Z,3.81
2022-11-29T22:16:45.632Z,3.67
2022-11-29T22:19:14.965Z,3.71
2022-11-29T22:21:44.065Z,3.63
2022-11-29T22:24:13.293Z,3.63
2022-11-29T22:26:42.729Z,3.62
2022-11-29T22:29:13.926Z,3.56
2022-11-29T22:31:43.290Z,3.49
2022-11-29T22:34:11.743Z,3.76
2022-11-29T22:36:40.728Z,3.81
2022-11-29T22:39:09.686Z,3.69
2022-11-29T22:41:38.533Z,3.71
2022-11-29T22:44:06.810Z,3.67
2022-11-29T22:46:35.462Z,3.72
2022-11-29T22:49:03.520Z,3.52
2022-11-29T22:51:36.399Z,3.52
2022-11-29T22:54:07.002Z,3.57
2022-11-29T22:56:40.521Z,3.57
2022-11-29T22:59:09.080Z,3.46
2022-11-29T23:01:39.312Z,3.54
2022-11-29T23:04:11.034Z,3.52
2022-11-29T23:06:42.277Z,3.57
2022-11-29T23:09:21.115Z,3.50
2022-11-29T23:11:56.348Z,3.51
2022-11-29T23:14:24.653Z,3.58
2022-11-29T23:16:53.116Z,3.57
2022-11-29T23:19:21.306Z,3.60
2022-11-29T23:21:49.091Z,3.65
2022-11-29T23:24:17.300Z,3.50
2022-11-29T23:26:48.109Z,3.60
2022-11-29T23:29:18.713Z,3.58
2022-11-29T23:31:46.636Z,3.62
2022-11-29T23:34:15.128Z,3.55
2022-11-29T23:36:44.806Z,3.60
2022-11-29T23:39:16.110Z,3.52
2022-11-29T23:41:44.223Z,3.62
2022-11-29T23:44:12.016Z,3.72
2022-11-29T23:46:39.733Z,3.60
2022-11-29T23:49:07.464Z,3.46
2022-11-29T23:51:35.153Z,3.50
2022-11-29T23:54:02.870Z,3.46
2022-11-29T23:56:35.334Z,3.48
2022-11-29T23:59:03.393Z,3.50
